sensor_id;sensor_type;location;lat;lon;timestamp;P1;durP1;ratioP1;P2;durP2;ratioP2
53203;SDS011;39086;54.424;18.456;2023-01-09T00:00:15;71.72;;;31.92;;
53203;SDS011;39086;54.424;18.456;2023-01-09T00:01:27;73.93;;;32.45;;
53203;SDS011;39086;54.424;18.456;2023-01-09T00:02:30;70.68;;;32.75;;
53203;SDS011;39086;54.424;18.456;2023-01-09T00:03:34;78.75;;;34.45;;
53203;SDS011;39086;54.424;18.456;2023-01-09T00:04:45;76.00;;;33.30;;
53203;SDS011;39086;54.424;18.456;2023-01-09T00:05:47;72.88;;;33.78;;
53203;SDS011;39086;54.424;18.456;2023-01-09T00:06:51;72.38;;;34.88;;
53203;SDS011;39086;54.424;18.456;2023-01-09T00:07:54;73.40;;;33.70;;
53203;SDS011;39086;54.424;18.456;2023-01-09T00:08:58;78.07;;;33.28;;
53203;SDS011;39086;54.424;18.456;2023-01-09T00:10:07;73.78;;;32.72;;
53203;SDS011;39086;54.424;18.456;2023-01-09T00:11:11;73.85;;;33.40;;
53203;SDS011;39086;54.424;18.456;2023-01-09T00:12:13;75.25;;;34.08;;
53203;SDS011;39086;54.424;18.456;2023-01-09T00:13:17;71.05;;;31.88;;
53203;SDS011;39086;54.424;18.456;2023-01-09T00:14:26;75.38;;;32.45;;
53203;SDS011;39086;54.424;18.456;2023-01-09T00:15:36;76.57;;;33.65;;
53203;SDS011;39086;54.424;18.456;2023-01-09T00:16:39;77.53;;;33.97;;
53203;SDS011;39086;54.424;18.456;2023-01-09T00:17:43;72.22;;;32.55;;
53203;SDS011;39086;54.424;18.456;2023-01-09T00:19:00;74.75;;;31.95;;
53203;SDS011;39086;54.424;18.456;2023-01-09T00:20:10;83.63;;;33.22;;
53203;SDS011;39086;54.424;18.456;2023-01-09T00:21:19;78.63;;;32.28;;
53203;SDS011;39086;54.424;18.456;2023-01-09T00:22:29;76.18;;;32.30;;
53203;SDS011;39086;54.424;18.456;2023-01-09T00:23:32;76.75;;;32.20;;
53203;SDS011;39086;54.424;18.456;2023-01-09T00:24:36;83.28;;;33.22;;
53203;SDS011;39086;54.424;18.456;2023-01-09T00:25:38;75.30;;;31.92;;
53203;SDS011;39086;54.424;18.456;2023-01-09T00:26:49;76.32;;;33.25;;
53203;SDS011;39086;54.424;18.456;2023-01-09T00:27:51;69.50;;;31.80;;
53203;SDS011;39086;54.424;18.456;2023-01-09T00:28:55;74.88;;;34.08;;
53203;SDS011;39086;54.424;18.456;2023-01-09T00:29:57;78.88;;;34.38;;
53203;SDS011;39086;54.424;18.456;2023-01-09T00:31:02;76.07;;;33.63;;
53203;SDS011;39086;54.424;18.456;2023-01-09T00:32:12;78.22;;;33.92;;
53203;SDS011;39086;54.424;18.456;2023-01-09T00:33:15;73.82;;;32.55;;
53203;SDS011;39086;54.424;18.456;2023-01-09T00:34:20;78.32;;;32.88;;
53203;SDS011;39086;54.424;18.456;2023-01-09T00:35:24;75.82;;;32.22;;
53203;SDS011;39086;54.424;18.456;2023-01-09T00:36:35;75.05;;;32.72;;
53203;SDS011;39086;54.424;18.456;2023-01-09T00:37:38;78.35;;;33.75;;
53203;SDS011;39086;54.424;18.456;2023-01-09T00:38:41;72.68;;;33.05;;
53203;SDS011;39086;54.424;18.456;2023-01-09T00:39:51;71.78;;;31.77;;
53203;SDS011;39086;54.424;18.456;2023-01-09T00:40:54;73.50;;;33.50;;
53203;SDS011;39086;54.424;18.456;2023-01-09T00:42:03;69.50;;;33.17;;
53203;SDS011;39086;54.424;18.456;2023-01-09T00:43:07;68.82;;;33.33;;
53203;SDS011;39086;54.424;18.456;2023-01-09T00:44:11;71.45;;;33.38;;
53203;SDS011;39086;54.424;18.456;2023-01-09T00:45:16;78.55;;;32.70;;
53203;SDS011;39086;54.424;18.456;2023-01-09T00:46:23;74.65;;;33.05;;
53203;SDS011;39086;54.424;18.456;2023-01-09T00:47:35;82.93;;;33.70;;
53203;SDS011;39086;54.424;18.456;2023-01-09T00:48:39;74.07;;;34.30;;
53203;SDS011;39086;54.424;18.456;2023-01-09T00:49:45;78.97;;;33.83;;
53203;SDS011;39086;54.424;18.456;2023-01-09T00:50:48;73.10;;;33.33;;
53203;SDS011;39086;54.424;18.456;2023-01-09T00:51:52;78.22;;;32.80;;
53203;SDS011;39086;54.424;18.456;2023-01-09T00:53:04;72.60;;;32.28;;
53203;SDS011;39086;54.424;18.456;2023-01-09T00:54:10;79.55;;;33.05;;
53203;SDS011;39086;54.424;18.456;2023-01-09T00:55:15;74.13;;;31.80;;
53203;SDS011;39086;54.424;18.456;2023-01-09T00:56:18;80.03;;;33.45;;
53203;SDS011;39086;54.424;18.456;2023-01-09T00:57:22;77.07;;;33.47;;
53203;SDS011;39086;54.424;18.456;2023-01-09T00:58:32;78.00;;;32.72;;
53203;SDS011;39086;54.424;18.456;2023-01-09T00:59:43;79.32;;;33.85;;
53203;SDS011;39086;54.424;18.456;2023-01-09T01:00:46;79.22;;;32.25;;
53203;SDS011;39086;54.424;18.456;2023-01-09T01:01:49;73.78;;;32.42;;
53203;SDS011;39086;54.424;18.456;2023-01-09T01:02:53;78.93;;;32.95;;
53203;SDS011;39086;54.424;18.456;2023-01-09T01:04:02;77.82;;;34.28;;
53203;SDS011;39086;54.424;18.456;2023-01-09T01:05:27;69.72;;;32.17;;
53203;SDS011;39086;54.424;18.456;2023-01-09T01:06:55;74.28;;;33.35;;
53203;SDS011;39086;54.424;18.456;2023-01-09T01:08:17;76.55;;;31.52;;
53203;SDS011;39086;54.424;18.456;2023-01-09T01:09:19;80.40;;;33.60;;
53203;SDS011;39086;54.424;18.456;2023-01-09T01:10:23;82.97;;;33.33;;
53203;SDS011;39086;54.424;18.456;2023-01-09T01:11:33;78.95;;;33.60;;
53203;SDS011;39086;54.424;18.456;2023-01-09T01:12:37;78.22;;;33.60;;
53203;SDS011;39086;54.424;18.456;2023-01-09T01:13:40;80.93;;;33.75;;
53203;SDS011;39086;54.424;18.456;2023-01-09T01:14:43;79.15;;;33.47;;
53203;SDS011;39086;54.424;18.456;2023-01-09T01:15:53;80.38;;;33.33;;
53203;SDS011;39086;54.424;18.456;2023-01-09T01:17:03;80.07;;;34.15;;
53203;SDS011;39086;54.424;18.456;2023-01-09T01:18:18;78.90;;;34.13;;
53203;SDS011;39086;54.424;18.456;2023-01-09T01:19:22;86.55;;;34.72;;
53203;SDS011;39086;54.424;18.456;2023-01-09T01:20:24;83.68;;;33.40;;
53203;SDS011;39086;54.424;18.456;2023-01-09T01:21:36;76.43;;;33.55;;
53203;SDS011;39086;54.424;18.456;2023-01-09T01:22:39;79.97;;;33.10;;
53203;SDS011;39086;54.424;18.456;2023-01-09T01:23:43;79.07;;;33.53;;
53203;SDS011;39086;54.424;18.456;2023-01-09T01:24:46;79.20;;;34.55;;
53203;SDS011;39086;54.424;18.456;2023-01-09T01:25:49;83.03;;;34.03;;
53203;SDS011;39086;54.424;18.456;2023-01-09T01:26:58;81.10;;;34.17;;
53203;SDS011;39086;54.424;18.456;2023-01-09T01:28:01;78.32;;;33.38;;
53203;SDS011;39086;54.424;18.456;2023-01-09T01:29:04;75.78;;;32.53;;
53203;SDS011;39086;54.424;18.456;2023-01-09T01:30:08;84.65;;;35.22;;
53203;SDS011;39086;54.424;18.456;2023-01-09T01:31:14;82.55;;;34.47;;
53203;SDS011;39086;54.424;18.456;2023-01-09T01:32:25;81.03;;;32.78;;
53203;SDS011;39086;54.424;18.456;2023-01-09T01:33:27;87.65;;;34.70;;
53203;SDS011;39086;54.424;18.456;2023-01-09T01:34:38;84.03;;;34.42;;
53203;SDS011;39086;54.424;18.456;2023-01-09T01:35:40;83.57;;;33.33;;
53203;SDS011;39086;54.424;18.456;2023-01-09T01:36:45;82.93;;;34.22;;
53203;SDS011;39086;54.424;18.456;2023-01-09T01:37:48;79.18;;;33.55;;
53203;SDS011;39086;54.424;18.456;2023-01-09T01:38:58;79.47;;;32.25;;
53203;SDS011;39086;54.424;18.456;2023-01-09T01:40:00;80.68;;;33.75;;
53203;SDS011;39086;54.424;18.456;2023-01-09T01:41:04;68.35;;;31.75;;
53203;SDS011;39086;54.424;18.456;2023-01-09T01:42:07;75.70;;;32.10;;
53203;SDS011;39086;54.424;18.456;2023-01-09T01:43:17;78.55;;;33.10;;
53203;SDS011;39086;54.424;18.456;2023-01-09T01:45:41;76.30;;;31.80;;
53203;SDS011;39086;54.424;18.456;2023-01-09T01:46:45;78.18;;;33.92;;
53203;SDS011;39086;54.424;18.456;2023-01-09T01:47:51;75.20;;;32.13;;
53203;SDS011;39086;54.424;18.456;2023-01-09T01:49:03;72.90;;;32.05;;
53203;SDS011;39086;54.424;18.456;2023-01-09T01:50:07;75.38;;;32.75;;
53203;SDS011;39086;54.424;18.456;2023-01-09T01:51:19;69.97;;;30.98;;
53203;SDS011;39086;54.424;18.456;2023-01-09T01:52:25;72.35;;;32.13;;
53203;SDS011;39086;54.424;18.456;2023-01-09T01:53:29;70.95;;;31.77;;
53203;SDS011;39086;54.424;18.456;2023-01-09T01:54:33;79.53;;;34.25;;
53203;SDS011;39086;54.424;18.456;2023-01-09T01:55:37;75.57;;;33.33;;
53203;SDS011;39086;54.424;18.456;2023-01-09T01:56:50;74.95;;;31.58;;
53203;SDS011;39086;54.424;18.456;2023-01-09T01:57:58;75.57;;;33.33;;
53203;SDS011;39086;54.424;18.456;2023-01-09T01:59:10;83.13;;;33.47;;
53203;SDS011;39086;54.424;18.456;2023-01-09T02:00:15;72.05;;;31.23;;
53203;SDS011;39086;54.424;18.456;2023-01-09T02:01:26;71.80;;;32.67;;
53203;SDS011;39086;54.424;18.456;2023-01-09T02:02:30;76.13;;;34.08;;
53203;SDS011;39086;54.424;18.456;2023-01-09T02:03:33;79.50;;;32.33;;
53203;SDS011;39086;54.424;18.456;2023-01-09T02:04:44;72.05;;;31.90;;
53203;SDS011;39086;54.424;18.456;2023-01-09T02:05:47;78.63;;;33.72;;
53203;SDS011;39086;54.424;18.456;2023-01-09T02:06:52;75.50;;;33.13;;
53203;SDS011;39086;54.424;18.456;2023-01-09T02:07:56;71.65;;;31.30;;
53203;SDS011;39086;54.424;18.456;2023-01-09T02:09:00;79.13;;;34.55;;
53203;SDS011;39086;54.424;18.456;2023-01-09T02:10:10;76.65;;;33.78;;
53203;SDS011;39086;54.424;18.456;2023-01-09T02:11:20;74.10;;;33.00;;
53203;SDS011;39086;54.424;18.456;2023-01-09T02:12:23;72.47;;;32.58;;
53203;SDS011;39086;54.424;18.456;2023-01-09T02:13:27;73.72;;;31.38;;
53203;SDS011;39086;54.424;18.456;2023-01-09T02:14:30;80.47;;;32.85;;
53203;SDS011;39086;54.424;18.456;2023-01-09T02:15:35;79.28;;;34.28;;
53203;SDS011;39086;54.424;18.456;2023-01-09T02:16:49;79.80;;;33.40;;
53203;SDS011;39086;54.424;18.456;2023-01-09T02:18:05;74.53;;;32.92;;
53203;SDS011;39086;54.424;18.456;2023-01-09T02:19:29;72.75;;;31.73;;
53203;SDS011;39086;54.424;18.456;2023-01-09T02:20:48;76.07;;;32.40;;
53203;SDS011;39086;54.424;18.456;2023-01-09T02:22:01;71.32;;;32.40;;
53203;SDS011;39086;54.424;18.456;2023-01-09T02:23:23;70.78;;;31.15;;
53203;SDS011;39086;54.424;18.456;2023-01-09T02:24:39;78.90;;;33.50;;
53203;SDS011;39086;54.424;18.456;2023-01-09T02:25:55;79.32;;;33.78;;
53203;SDS011;39086;54.424;18.456;2023-01-09T02:27:18;80.55;;;34.10;;
53203;SDS011;39086;54.424;18.456;2023-01-09T02:29:43;78.18;;;33.38;;
53203;SDS011;39086;54.424;18.456;2023-01-09T02:30:49;83.90;;;34.90;;
53203;SDS011;39086;54.424;18.456;2023-01-09T02:31:54;81.05;;;34.88;;
53203;SDS011;39086;54.424;18.456;2023-01-09T02:33:12;72.20;;;32.10;;
53203;SDS011;39086;54.424;18.456;2023-01-09T02:34:22;80.68;;;32.65;;
53203;SDS011;39086;54.424;18.456;2023-01-09T02:35:31;73.57;;;33.75;;
53203;SDS011;39086;54.424;18.456;2023-01-09T02:36:38;79.72;;;33.90;;
53203;SDS011;39086;54.424;18.456;2023-01-09T02:37:46;79.70;;;33.38;;
53203;SDS011;39086;54.424;18.456;2023-01-09T02:39:03;74.85;;;33.25;;
53203;SDS011;39086;54.424;18.456;2023-01-09T02:40:14;78.68;;;33.33;;
53203;SDS011;39086;54.424;18.456;2023-01-09T02:41:19;81.20;;;33.70;;
53203;SDS011;39086;54.424;18.456;2023-01-09T02:42:25;77.63;;;33.58;;
53203;SDS011;39086;54.424;18.456;2023-01-09T02:43:27;85.63;;;35.05;;
53203;SDS011;39086;54.424;18.456;2023-01-09T02:44:38;76.18;;;34.40;;
53203;SDS011;39086;54.424;18.456;2023-01-09T02:45:43;74.93;;;31.58;;
53203;SDS011;39086;54.424;18.456;2023-01-09T02:46:57;76.97;;;33.80;;
53203;SDS011;39086;54.424;18.456;2023-01-09T02:48:00;75.97;;;32.20;;
53203;SDS011;39086;54.424;18.456;2023-01-09T02:49:11;74.72;;;32.75;;
53203;SDS011;39086;54.424;18.456;2023-01-09T02:50:14;73.30;;;32.53;;
53203;SDS011;39086;54.424;18.456;2023-01-09T02:51:20;77.57;;;32.28;;
53203;SDS011;39086;54.424;18.456;2023-01-09T02:52:27;74.07;;;33.13;;
53203;SDS011;39086;54.424;18.456;2023-01-09T02:53:45;71.50;;;32.10;;
53203;SDS011;39086;54.424;18.456;2023-01-09T02:54:53;78.07;;;32.78;;
53203;SDS011;39086;54.424;18.456;2023-01-09T02:56:07;69.75;;;32.38;;
53203;SDS011;39086;54.424;18.456;2023-01-09T02:58:40;83.03;;;33.90;;
53203;SDS011;39086;54.424;18.456;2023-01-09T02:59:55;71.65;;;31.08;;
53203;SDS011;39086;54.424;18.456;2023-01-09T03:01:10;78.05;;;32.65;;
53203;SDS011;39086;54.424;18.456;2023-01-09T03:02:21;74.72;;;32.75;;
53203;SDS011;39086;54.424;18.456;2023-01-09T03:03:30;80.32;;;33.10;;
53203;SDS011;39086;54.424;18.456;2023-01-09T03:04:43;80.70;;;34.33;;
53203;SDS011;39086;54.424;18.456;2023-01-09T03:05:50;76.13;;;33.28;;
53203;SDS011;39086;54.424;18.456;2023-01-09T03:06:55;76.18;;;32.65;;
53203;SDS011;39086;54.424;18.456;2023-01-09T03:08:02;81.65;;;33.95;;
53203;SDS011;39086;54.424;18.456;2023-01-09T03:09:05;80.05;;;34.13;;
53203;SDS011;39086;54.424;18.456;2023-01-09T03:10:18;77.10;;;33.20;;
53203;SDS011;39086;54.424;18.456;2023-01-09T03:11:22;72.47;;;31.67;;
53203;SDS011;39086;54.424;18.456;2023-01-09T03:12:27;80.55;;;33.03;;
53203;SDS011;39086;54.424;18.456;2023-01-09T03:13:34;81.18;;;33.63;;
53203;SDS011;39086;54.424;18.456;2023-01-09T03:14:39;79.90;;;32.78;;
53203;SDS011;39086;54.424;18.456;2023-01-09T03:15:52;81.03;;;34.40;;
53203;SDS011;39086;54.424;18.456;2023-01-09T03:16:57;77.00;;;32.85;;
53203;SDS011;39086;54.424;18.456;2023-01-09T03:18:09;79.18;;;33.13;;
53203;SDS011;39086;54.424;18.456;2023-01-09T03:19:28;75.47;;;31.95;;
53203;SDS011;39086;54.424;18.456;2023-01-09T03:20:38;78.00;;;32.67;;
53203;SDS011;39086;54.424;18.456;2023-01-09T03:21:41;75.70;;;32.42;;
53203;SDS011;39086;54.424;18.456;2023-01-09T03:22:46;81.22;;;34.05;;
53203;SDS011;39086;54.424;18.456;2023-01-09T03:23:51;81.43;;;34.15;;
53203;SDS011;39086;54.424;18.456;2023-01-09T03:24:54;77.32;;;32.05;;
53203;SDS011;39086;54.424;18.456;2023-01-09T03:26:05;85.30;;;35.55;;
53203;SDS011;39086;54.424;18.456;2023-01-09T03:27:07;74.85;;;33.67;;
53203;SDS011;39086;54.424;18.456;2023-01-09T03:28:14;76.18;;;33.10;;
53203;SDS011;39086;54.424;18.456;2023-01-09T03:29:19;85.68;;;34.47;;
53203;SDS011;39086;54.424;18.456;2023-01-09T03:30:23;85.38;;;34.55;;
53203;SDS011;39086;54.424;18.456;2023-01-09T03:31:34;77.90;;;34.65;;
53203;SDS011;39086;54.424;18.456;2023-01-09T03:32:37;72.47;;;34.50;;
53203;SDS011;39086;54.424;18.456;2023-01-09T03:33:41;77.85;;;34.22;;
53203;SDS011;39086;54.424;18.456;2023-01-09T03:34:45;82.78;;;34.35;;
53203;SDS011;39086;54.424;18.456;2023-01-09T03:35:47;74.32;;;32.63;;
53203;SDS011;39086;54.424;18.456;2023-01-09T03:36:58;81.00;;;31.88;;
53203;SDS011;39086;54.424;18.456;2023-01-09T03:38:00;79.85;;;32.75;;
53203;SDS011;39086;54.424;18.456;2023-01-09T03:39:05;80.53;;;33.78;;
53203;SDS011;39086;54.424;18.456;2023-01-09T03:40:08;78.53;;;33.85;;
53203;SDS011;39086;54.424;18.456;2023-01-09T03:41:12;80.32;;;34.38;;
53203;SDS011;39086;54.424;18.456;2023-01-09T03:42:21;79.82;;;32.92;;
53203;SDS011;39086;54.424;18.456;2023-01-09T03:43:24;77.68;;;33.20;;
53203;SDS011;39086;54.424;18.456;2023-01-09T03:44:26;79.20;;;33.30;;
53203;SDS011;39086;54.424;18.456;2023-01-09T03:45:30;68.47;;;31.20;;
53203;SDS011;39086;54.424;18.456;2023-01-09T03:46:33;76.38;;;33.17;;
53203;SDS011;39086;54.424;18.456;2023-01-09T03:47:43;78.38;;;32.17;;
53203;SDS011;39086;54.424;18.456;2023-01-09T03:48:46;76.53;;;31.95;;
53203;SDS011;39086;54.424;18.456;2023-01-09T03:49:50;80.70;;;32.58;;
53203;SDS011;39086;54.424;18.456;2023-01-09T03:50:53;71.90;;;32.65;;
53203;SDS011;39086;54.424;18.456;2023-01-09T03:52:04;83.78;;;32.67;;
53203;SDS011;39086;54.424;18.456;2023-01-09T03:53:07;69.47;;;32.30;;
53203;SDS011;39086;54.424;18.456;2023-01-09T03:54:10;77.75;;;32.72;;
53203;SDS011;39086;54.424;18.456;2023-01-09T03:55:13;70.78;;;32.15;;
53203;SDS011;39086;54.424;18.456;2023-01-09T03:56:16;76.07;;;31.55;;
53203;SDS011;39086;54.424;18.456;2023-01-09T03:57:26;75.90;;;31.58;;
53203;SDS011;39086;54.424;18.456;2023-01-09T03:58:28;75.97;;;32.70;;
53203;SDS011;39086;54.424;18.456;2023-01-09T03:59:32;80.63;;;33.92;;
53203;SDS011;39086;54.424;18.456;2023-01-09T04:00:34;79.63;;;34.00;;
53203;SDS011;39086;54.424;18.456;2023-01-09T04:01:39;79.35;;;33.75;;
53203;SDS011;39086;54.424;18.456;2023-01-09T04:02:49;78.63;;;33.90;;
53203;SDS011;39086;54.424;18.456;2023-01-09T04:03:54;80.32;;;33.10;;
53203;SDS011;39086;54.424;18.456;2023-01-09T04:04:56;83.00;;;33.75;;
53203;SDS011;39086;54.424;18.456;2023-01-09T04:06:00;77.40;;;34.47;;
53203;SDS011;39086;54.424;18.456;2023-01-09T04:07:02;77.47;;;33.47;;
53203;SDS011;39086;54.424;18.456;2023-01-09T04:08:13;77.85;;;32.78;;
53203;SDS011;39086;54.424;18.456;2023-01-09T04:09:15;84.10;;;34.38;;
53203;SDS011;39086;54.424;18.456;2023-01-09T04:10:19;78.53;;;33.97;;
53203;SDS011;39086;54.424;18.456;2023-01-09T04:11:21;86.82;;;35.72;;
53203;SDS011;39086;54.424;18.456;2023-01-09T04:12:25;85.10;;;34.58;;
53203;SDS011;39086;54.424;18.456;2023-01-09T04:13:34;80.65;;;32.47;;
53203;SDS011;39086;54.424;18.456;2023-01-09T04:14:37;81.15;;;35.38;;
53203;SDS011;39086;54.424;18.456;2023-01-09T04:15:40;88.93;;;35.25;;
53203;SDS011;39086;54.424;18.456;2023-01-09T04:16:43;82.88;;;34.80;;
53203;SDS011;39086;54.424;18.456;2023-01-09T04:17:46;81.03;;;34.33;;
53203;SDS011;39086;54.424;18.456;2023-01-09T04:19:04;82.30;;;33.80;;
53203;SDS011;39086;54.424;18.456;2023-01-09T04:20:08;84.40;;;34.17;;
53203;SDS011;39086;54.424;18.456;2023-01-09T04:21:17;81.47;;;33.25;;
53203;SDS011;39086;54.424;18.456;2023-01-09T04:22:20;82.78;;;35.10;;
53203;SDS011;39086;54.424;18.456;2023-01-09T04:23:23;83.03;;;33.65;;
53203;SDS011;39086;54.424;18.456;2023-01-09T04:24:33;86.28;;;33.15;;
53203;SDS011;39086;54.424;18.456;2023-01-09T04:25:35;91.40;;;34.85;;
53203;SDS011;39086;54.424;18.456;2023-01-09T04:26:39;84.13;;;35.53;;
53203;SDS011;39086;54.424;18.456;2023-01-09T04:27:41;83.53;;;35.00;;
53203;SDS011;39086;54.424;18.456;2023-01-09T04:28:45;86.43;;;34.80;;
53203;SDS011;39086;54.424;18.456;2023-01-09T04:29:54;88.22;;;35.47;;
53203;SDS011;39086;54.424;18.456;2023-01-09T04:30:57;86.47;;;33.13;;
53203;SDS011;39086;54.424;18.456;2023-01-09T04:32:07;85.82;;;33.83;;
53203;SDS011;39086;54.424;18.456;2023-01-09T04:33:10;89.40;;;34.33;;
53203;SDS011;39086;54.424;18.456;2023-01-09T04:34:15;95.47;;;35.15;;
53203;SDS011;39086;54.424;18.456;2023-01-09T04:35:24;89.90;;;33.88;;
53203;SDS011;39086;54.424;18.456;2023-01-09T04:36:27;95.95;;;34.85;;
53203;SDS011;39086;54.424;18.456;2023-01-09T04:37:31;93.93;;;35.63;;
53203;SDS011;39086;54.424;18.456;2023-01-09T04:38:33;87.47;;;35.00;;
53203;SDS011;39086;54.424;18.456;2023-01-09T04:39:47;90.18;;;35.28;;
53203;SDS011;39086;54.424;18.456;2023-01-09T04:40:50;93.18;;;34.63;;
53203;SDS011;39086;54.424;18.456;2023-01-09T04:41:53;87.97;;;34.28;;
53203;SDS011;39086;54.424;18.456;2023-01-09T04:42:56;85.38;;;32.72;;
53203;SDS011;39086;54.424;18.456;2023-01-09T04:43:59;87.30;;;34.65;;
53203;SDS011;39086;54.424;18.456;2023-01-09T04:45:09;96.25;;;35.80;;
53203;SDS011;39086;54.424;18.456;2023-01-09T04:46:22;84.85;;;34.13;;
53203;SDS011;39086;54.424;18.456;2023-01-09T04:47:24;97.20;;;36.33;;
53203;SDS011;39086;54.424;18.456;2023-01-09T04:48:31;94.57;;;33.78;;
53203;SDS011;39086;54.424;18.456;2023-01-09T04:49:35;99.45;;;36.00;;
53203;SDS011;39086;54.424;18.456;2023-01-09T04:50:38;86.95;;;35.20;;
53203;SDS011;39086;54.424;18.456;2023-01-09T04:51:47;92.43;;;34.15;;
53203;SDS011;39086;54.424;18.456;2023-01-09T04:52:50;91.43;;;34.50;;
53203;SDS011;39086;54.424;18.456;2023-01-09T04:53:53;91.32;;;35.40;;
53203;SDS011;39086;54.424;18.456;2023-01-09T04:54:56;90.15;;;35.17;;
53203;SDS011;39086;54.424;18.456;2023-01-09T04:55:59;93.00;;;34.90;;
53203;SDS011;39086;54.424;18.456;2023-01-09T04:57:09;91.80;;;34.70;;
53203;SDS011;39086;54.424;18.456;2023-01-09T04:58:12;87.63;;;34.85;;
53203;SDS011;39086;54.424;18.456;2023-01-09T04:59:16;89.85;;;34.47;;
53203;SDS011;39086;54.424;18.456;2023-01-09T05:00:18;92.25;;;35.05;;
53203;SDS011;39086;54.424;18.456;2023-01-09T05:01:22;99.90;;;36.35;;
53203;SDS011;39086;54.424;18.456;2023-01-09T05:02:31;91.72;;;34.65;;
53203;SDS011;39086;54.424;18.456;2023-01-09T05:03:34;106.13;;;37.47;;
53203;SDS011;39086;54.424;18.456;2023-01-09T05:04:38;105.53;;;36.90;;
53203;SDS011;39086;54.424;18.456;2023-01-09T05:05:42;97.15;;;35.20;;
53203;SDS011;39086;54.424;18.456;2023-01-09T05:06:45;103.50;;;37.08;;
53203;SDS011;39086;54.424;18.456;2023-01-09T05:07:55;102.45;;;35.38;;
53203;SDS011;39086;54.424;18.456;2023-01-09T05:08:57;99.68;;;35.80;;
53203;SDS011;39086;54.424;18.456;2023-01-09T05:10:08;94.95;;;34.75;;
53203;SDS011;39086;54.424;18.456;2023-01-09T05:11:19;102.80;;;35.08;;
53203;SDS011;39086;54.424;18.456;2023-01-09T05:12:21;101.63;;;37.55;;
53203;SDS011;39086;54.424;18.456;2023-01-09T05:13:25;107.35;;;36.63;;
53203;SDS011;39086;54.424;18.456;2023-01-09T05:14:28;90.85;;;36.00;;
53203;SDS011;39086;54.424;18.456;2023-01-09T05:15:31;105.18;;;37.05;;
53203;SDS011;39086;54.424;18.456;2023-01-09T05:16:41;105.82;;;37.63;;
53203;SDS011;39086;54.424;18.456;2023-01-09T05:17:44;97.80;;;35.40;;
53203;SDS011;39086;54.424;18.456;2023-01-09T05:18:54;100.05;;;35.80;;
53203;SDS011;39086;54.424;18.456;2023-01-09T05:20:05;105.63;;;35.70;;
53203;SDS011;39086;54.424;18.456;2023-01-09T05:21:09;99.03;;;36.90;;
53203;SDS011;39086;54.424;18.456;2023-01-09T05:22:13;105.32;;;36.97;;
53203;SDS011;39086;54.424;18.456;2023-01-09T05:23:23;103.63;;;36.90;;
53203;SDS011;39086;54.424;18.456;2023-01-09T05:24:32;110.32;;;36.75;;
53203;SDS011;39086;54.424;18.456;2023-01-09T05:25:35;106.43;;;36.35;;
53203;SDS011;39086;54.424;18.456;2023-01-09T05:26:38;103.47;;;36.60;;
53203;SDS011;39086;54.424;18.456;2023-01-09T05:27:48;97.50;;;36.67;;
53203;SDS011;39086;54.424;18.456;2023-01-09T05:28:57;92.20;;;35.20;;
53203;SDS011;39086;54.424;18.456;2023-01-09T05:30:00;95.30;;;36.60;;
53203;SDS011;39086;54.424;18.456;2023-01-09T05:31:04;96.07;;;35.72;;
53203;SDS011;39086;54.424;18.456;2023-01-09T05:32:06;102.28;;;37.10;;
53203;SDS011;39086;54.424;18.456;2023-01-09T05:33:10;95.90;;;37.10;;
53203;SDS011;39086;54.424;18.456;2023-01-09T05:34:19;103.60;;;36.88;;
53203;SDS011;39086;54.424;18.456;2023-01-09T05:35:24;89.22;;;35.88;;
53203;SDS011;39086;54.424;18.456;2023-01-09T05:36:26;93.53;;;36.88;;
53203;SDS011;39086;54.424;18.456;2023-01-09T05:37:30;96.68;;;37.50;;
53203;SDS011;39086;54.424;18.456;2023-01-09T05:38:33;94.20;;;37.08;;
53203;SDS011;39086;54.424;18.456;2023-01-09T05:39:43;99.10;;;38.15;;
53203;SDS011;39086;54.424;18.456;2023-01-09T05:40:46;95.47;;;36.13;;
53203;SDS011;39086;54.424;18.456;2023-01-09T05:41:49;98.18;;;37.20;;
53203;SDS011;39086;54.424;18.456;2023-01-09T05:42:59;94.10;;;37.40;;
53203;SDS011;39086;54.424;18.456;2023-01-09T05:44:01;99.63;;;36.83;;
53203;SDS011;39086;54.424;18.456;2023-01-09T05:45:12;97.43;;;37.00;;
53203;SDS011;39086;54.424;18.456;2023-01-09T05:46:14;94.47;;;37.58;;
53203;SDS011;39086;54.424;18.456;2023-01-09T05:47:18;93.22;;;36.75;;
53203;SDS011;39086;54.424;18.456;2023-01-09T05:48:21;101.38;;;38.63;;
53203;SDS011;39086;54.424;18.456;2023-01-09T05:49:24;93.95;;;36.78;;
53203;SDS011;39086;54.424;18.456;2023-01-09T05:50:35;98.43;;;37.40;;
53203;SDS011;39086;54.424;18.456;2023-01-09T05:51:37;95.50;;;36.47;;
53203;SDS011;39086;54.424;18.456;2023-01-09T05:52:41;95.65;;;37.65;;
53203;SDS011;39086;54.424;18.456;2023-01-09T05:53:44;102.97;;;37.95;;
53203;SDS011;39086;54.424;18.456;2023-01-09T05:54:54;90.07;;;36.67;;
53203;SDS011;39086;54.424;18.456;2023-01-09T05:55:57;92.18;;;38.42;;
53203;SDS011;39086;54.424;18.456;2023-01-09T05:57:00;90.35;;;36.28;;
53203;SDS011;39086;54.424;18.456;2023-01-09T05:58:03;88.35;;;37.38;;
53203;SDS011;39086;54.424;18.456;2023-01-09T05:59:06;90.85;;;36.65;;
53203;SDS011;39086;54.424;18.456;2023-01-09T06:00:16;102.15;;;37.72;;
53203;SDS011;39086;54.424;18.456;2023-01-09T06:01:25;80.90;;;34.67;;
53203;SDS011;39086;54.424;18.456;2023-01-09T06:02:28;87.65;;;36.92;;
53203;SDS011;39086;54.424;18.456;2023-01-09T06:03:31;94.28;;;38.17;;
53203;SDS011;39086;54.424;18.456;2023-01-09T06:04:34;91.60;;;37.40;;
53203;SDS011;39086;54.424;18.456;2023-01-09T06:05:46;91.60;;;37.45;;
53203;SDS011;39086;54.424;18.456;2023-01-09T06:06:49;91.53;;;36.08;;
53203;SDS011;39086;54.424;18.456;2023-01-09T06:07:59;92.93;;;37.00;;
53203;SDS011;39086;54.424;18.456;2023-01-09T06:09:01;90.95;;;38.60;;
53203;SDS011;39086;54.424;18.456;2023-01-09T06:10:05;90.65;;;36.35;;
53203;SDS011;39086;54.424;18.456;2023-01-09T06:11:15;88.93;;;37.40;;
53203;SDS011;39086;54.424;18.456;2023-01-09T06:12:18;91.38;;;37.10;;
53203;SDS011;39086;54.424;18.456;2023-01-09T06:13:21;85.57;;;36.90;;
53203;SDS011;39086;54.424;18.456;2023-01-09T06:14:24;88.93;;;36.70;;
53203;SDS011;39086;54.424;18.456;2023-01-09T06:15:34;91.80;;;36.45;;
53203;SDS011;39086;54.424;18.456;2023-01-09T06:16:44;96.50;;;37.13;;
53203;SDS011;39086;54.424;18.456;2023-01-09T06:17:47;91.13;;;36.80;;
53203;SDS011;39086;54.424;18.456;2023-01-09T06:18:56;81.35;;;35.25;;
53203;SDS011;39086;54.424;18.456;2023-01-09T06:20:14;86.18;;;36.38;;
53203;SDS011;39086;54.424;18.456;2023-01-09T06:21:18;83.97;;;36.33;;
53203;SDS011;39086;54.424;18.456;2023-01-09T06:22:28;86.90;;;36.33;;
53203;SDS011;39086;54.424;18.456;2023-01-09T06:23:31;91.10;;;36.88;;
53203;SDS011;39086;54.424;18.456;2023-01-09T06:24:34;84.13;;;36.97;;
53203;SDS011;39086;54.424;18.456;2023-01-09T06:25:37;90.80;;;36.95;;
53203;SDS011;39086;54.424;18.456;2023-01-09T06:26:40;96.07;;;37.85;;